createdAt,value
2024-04-01T00:00:44.948Z,80.15
2024-04-01T00:01:44.783Z,79.94
2024-04-01T00:02:44.811Z,80.15
2024-04-01T00:03:44.749Z,80.35
2024-04-01T00:04:44.788Z,80.15
2024-04-01T00:05:44.806Z,80.05
2024-04-01T00:06:44.711Z,79.94
2024-04-01T00:07:44.709Z,80.35
2024-04-01T00:08:44.698Z,80.25
2024-04-01T00:09:44.687Z,79.94
2024-04-01T00:10:44.665Z,80.15
2024-04-01T00:11:44.668Z,80.25
2024-04-01T00:12:44.643Z,80.15
2024-04-01T00:13:44.617Z,80.25
2024-04-01T00:14:44.637Z,79.84
2024-04-01T00:15:44.608Z,79.94
2024-04-01T00:16:44.596Z,79.64
2024-04-01T00:17:44.588Z,79.94
2024-04-01T00:18:44.550Z,80.05
2024-04-01T00:19:44.549Z,80.25
2024-04-01T00:20:44.550Z,80.76
2024-04-01T00:21:44.548Z,81.17
2024-04-01T00:22:45.342Z,81.38
2024-04-01T00:23:44.495Z,81.68
2024-04-01T00:24:44.517Z,81.48
2024-04-01T00:25:44.457Z,81.72
2024-04-01T00:26:44.464Z,82.13
2024-04-01T00:27:44.461Z,82.54
2024-04-01T00:28:44.420Z,82.54
2024-04-01T00:29:44.427Z,82.75
2024-04-01T00:30:44.390Z,83.05
2024-04-01T00:31:44.386Z,82.23
2024-04-01T00:32:44.377Z,81.10
2024-04-01T00:33:44.368Z,81.21
2024-04-01T00:34:44.339Z,80.69
2024-04-01T00:35:44.323Z,80.39
2024-04-01T00:36:44.306Z,80.49
2024-04-01T00:37:44.304Z,80.29
2024-04-01T00:38:44.292Z,80.29
2024-04-01T00:39:44.550Z,80.19
2024-04-01T00:40:44.270Z,80.08
2024-04-01T00:41:44.254Z,79.98
2024-04-01T00:42:44.235Z,79.78
2024-04-01T00:43:44.234Z,80.39
2024-04-01T00:44:44.215Z,79.88
2024-04-01T00:45:44.198Z,79.68
2024-04-01T00:46:44.244Z,79.23
2024-04-01T00:47:44.180Z,79.13
2024-04-01T00:48:44.144Z,80.15
2024-04-01T00:49:44.142Z,79.64
2024-04-01T00:50:44.135Z,79.64
2024-04-01T00:51:44.113Z,79.33
2024-04-01T00:52:44.106Z,78.72
2024-04-01T00:53:44.083Z,78.72
2024-04-01T00:54:44.072Z,78.61
2024-04-01T00:55:44.104Z,77.97
2024-04-01T00:56:44.068Z,77.56
2024-04-01T00:57:44.029Z,77.45
2024-04-01T00:58:44.009Z,77.66
2024-04-01T00:59:44.007Z,77.86
2024-04-01T01:00:43.985Z,77.97
2024-04-01T01:01:43.997Z,77.97
2024-04-01T01:02:43.957Z,78.38
2024-04-01T01:03:43.948Z,78.07
2024-04-01T01:04:43.924Z,77.86
2024-04-01T01:05:43.918Z,78.07
2024-04-01T01:06:43.894Z,78.17
2024-04-01T01:07:43.899Z,78.68
2024-04-01T01:08:43.890Z,78.38
2024-04-01T01:09:43.875Z,78.17
2024-04-01T01:10:43.870Z,78.27
2024-04-01T01:11:43.833Z,78.20
2024-04-01T01:12:43.819Z,78.61
2024-04-01T01:13:43.827Z,78.41
2024-04-01T01:14:43.795Z,78.11
2024-04-01T01:15:43.800Z,78.41
2024-04-01T01:16:43.763Z,78.11
2024-04-01T01:17:43.782Z,78.11
2024-04-01T01:18:43.759Z,77.66
2024-04-01T01:19:43.735Z,77.56
2024-04-01T01:20:43.709Z,77.86
2024-04-01T01:21:43.705Z,78.07
2024-04-01T01:22:44.535Z,77.76
2024-04-01T01:23:43.684Z,77.56
2024-04-01T01:24:43.665Z,77.25
2024-04-01T01:25:43.664Z,77.35
2024-04-01T01:26:43.648Z,77.25
2024-04-01T01:27:43.625Z,76.94
2024-04-01T01:28:43.604Z,76.94
2024-04-01T01:29:43.615Z,76.84
2024-04-01T01:30:43.738Z,77.25
2024-04-01T01:31:43.616Z,77.35
2024-04-01T01:32:43.569Z,77.56
2024-04-01T01:33:43.547Z,77.04
2024-04-01T01:34:43.537Z,77.45
2024-04-01T01:35:43.535Z,77.04
2024-04-01T01:36:43.600Z,76.53
2024-04-01T01:37:43.498Z,76.43
2024-04-01T01:38:43.478Z,76.60
2024-04-01T01:39:43.461Z,76.43
2024-04-01T01:40:43.465Z,76.64
2024-04-01T01:41:43.463Z,76.64
2024-04-01T01:42:43.453Z,77.15
2024-04-01T01:43:43.403Z,77.25
2024-04-01T01:44:43.395Z,76.70
2024-04-01T01:45:43.393Z,77.01
2024-04-01T01:46:43.392Z,77.15
2024-04-01T01:47:43.416Z,77.76
2024-04-01T01:48:43.341Z,78.07
2024-04-01T01:49:43.334Z,77.86
2024-04-01T01:50:43.321Z,77.76
2024-04-01T01:51:43.316Z,78.17
2024-04-01T01:52:43.293Z,78.58
2024-04-01T01:53:43.359Z,78.78
2024-04-01T01:54:43.254Z,78.48
2024-04-01T01:55:43.245Z,78.58
2024-04-01T01:56:43.250Z,79.19
2024-04-01T01:57:43.229Z,79.19
2024-04-01T01:58:43.219Z,79.19
2024-04-01T01:59:43.195Z,79.39
2024-04-01T02:00:43.199Z,80.05
2024-04-01T02:01:43.171Z,79.84
2024-04-01T02:02:43.171Z,79.64
2024-04-01T02:03:43.171Z,80.25
2024-04-01T02:04:43.123Z,80.05
2024-04-01T02:05:43.107Z,80.35
2024-04-01T02:06:43.098Z,79.94
2024-04-01T02:07:43.075Z,80.05
2024-04-01T02:08:43.592Z,80.66
2024-04-01T02:09:43.114Z,80.56
2024-04-01T02:10:43.035Z,80.76
2024-04-01T02:11:43.032Z,80.76
2024-04-01T02:12:43.040Z,80.87
2024-04-01T02:13:43.014Z,81.38
2024-04-01T02:14:43.000Z,81.48
2024-04-01T02:15:42.976Z,81.58
2024-04-01T02:16:42.969Z,81.07
2024-04-01T02:17:42.957Z,81.07
2024-04-01T02:18:42.937Z,81.07
2024-04-01T02:19:42.930Z,80.97
2024-04-01T02:20:42.898Z,80.46
2024-04-01T02:21:42.909Z,80.66
2024-04-01T02:22:42.913Z,80.76
2024-04-01T02:23:42.923Z,80.35
2024-04-01T02:24:42.883Z,80.56
2024-04-01T02:25:42.855Z,80.66
2024-04-01T02:26:42.841Z,80.97
2024-04-01T02:27:42.824Z,81.07
2024-04-01T02:28:42.799Z,80.80
2024-04-01T02:29:42.822Z,81.27
2024-04-01T02:30:42.824Z,81.58
2024-04-01T02:31:42.773Z,81.99
2024-04-01T02:32:42.772Z,82.40
2024-04-01T02:33:42.734Z,82.40
2024-04-01T02:34:42.725Z,81.68
2024-04-01T02:35:42.709Z,81.68
2024-04-01T02:36:42.703Z,80.97
2024-04-01T02:37:42.701Z,80.66
2024-04-01T02:38:42.684Z,79.94
2024-04-01T02:39:42.671Z,79.43
2024-04-01T02:40:42.636Z,79.64
2024-04-01T02:41:42.691Z,79.64
2024-04-01T02:42:42.620Z,79.64
2024-04-01T02:43:42.602Z,79.84
2024-04-01T02:44:42.620Z,79.64
2024-04-01T02:45:42.610Z,79.13
2024-04-01T02:46:42.569Z,79.23
2024-04-01T02:47:42.555Z,79.02
2024-04-01T02:48:42.547Z,78.61
2024-04-01T02:49:42.542Z,78.72
2024-04-01T02:50:42.512Z,78.82
2024-04-01T02:51:42.485Z,79.33
2024-04-01T02:52:42.466Z,78.72
2024-04-01T02:53:42.501Z,78.52
2024-04-01T02:54:42.463Z,78.72
2024-04-01T02:55:42.475Z,79.02
2024-04-01T02:56:42.421Z,79.33
2024-04-01T02:57:42.417Z,79.33
2024-04-01T02:58:42.396Z,79.53
2024-04-01T02:59:42.435Z,79.64
2024-04-01T03:00:42.399Z,79.84
2024-04-01T03:01:42.357Z,79.43
2024-04-01T03:02:42.342Z,79.43
2024-04-01T03:03:42.344Z,78.82
2024-04-01T03:04:42.323Z,78.52
2024-04-01T03:05:42.334Z,78.41
2024-04-01T03:06:42.281Z,77.80
2024-04-01T03:07:42.295Z,76.98
2024-04-01T03:08:42.269Z,77.29
2024-04-01T03:09:43.049Z,77.56
2024-04-01T03:10:42.256Z,77.76
2024-04-01T03:11:42.220Z,77.97
2024-04-01T03:12:42.200Z,77.97
2024-04-01T03:13:42.198Z,78.38
2024-04-01T03:14:42.241Z,77.56
2024-04-01T03:15:42.195Z,78.17
2024-04-01T03:16:42.151Z,77.66
2024-04-01T03:17:42.137Z,77.76
2024-04-01T03:18:42.144Z,77.76
2024-04-01T03:19:42.126Z,77.56
2024-04-01T03:20:42.568Z,77.76
2024-04-01T03:21:42.112Z,77.56
2024-04-01T03:22:42.064Z,77.25
2024-04-01T03:23:42.080Z,77.56
2024-04-01T03:24:42.052Z,77.86
2024-04-01T03:25:42.066Z,77.25
2024-04-01T03:26:42.030Z,76.84
2024-04-01T03:27:42.017Z,77.25
2024-04-01T03:28:42.011Z,77.25
2024-04-01T03:29:41.999Z,77.66
2024-04-01T03:30:41.964Z,77.35
2024-04-01T03:31:41.998Z,77.45
2024-04-01T03:32:41.961Z,77.56
2024-04-01T03:33:41.951Z,77.56
2024-04-01T03:34:41.936Z,77.56
2024-04-01T03:35:41.924Z,77.97
2024-04-01T03:36:41.892Z,77.45
2024-04-01T03:37:41.879Z,77.66
2024-04-01T03:38:41.871Z,77.76
2024-04-01T03:39:41.876Z,77.80
2024-04-01T03:40:41.855Z,78.11
2024-04-01T03:41:41.827Z,78.31
2024-04-01T03:42:41.813Z,78.31
2024-04-01T03:43:41.864Z,77.90
2024-04-01T03:44:41.786Z,78.31
2024-04-01T03:45:41.792Z,78.20
2024-04-01T03:46:41.759Z,79.02
2024-04-01T03:47:41.744Z,79.74
2024-04-01T03:48:41.720Z,79.84
2024-04-01T03:49:41.711Z,80.49
2024-04-01T03:50:41.707Z,80.39
2024-04-01T03:51:41.681Z,80.49
2024-04-01T03:52:41.670Z,80.69
2024-04-01T03:53:41.652Z,80.69
2024-04-01T03:54:41.663Z,81.10
2024-04-01T03:55:41.667Z,81.21
2024-04-01T03:56:41.637Z,81.31
2024-04-01T03:57:41.596Z,80.90
2024-04-01T03:58:41.589Z,81.21
2024-04-01T03:59:41.591Z,81.31
2024-04-01T04:00:41.574Z,81.62
2024-04-01T04:01:41.560Z,81.93
2024-04-01T04:02:41.602Z,81.51
2024-04-01T04:03:41.526Z,81.41
2024-04-01T04:04:41.533Z,81.51
2024-04-01T04:05:41.522Z,81.41
2024-04-01T04:06:41.516Z,82.34
2024-04-01T04:07:41.477Z,81.72
2024-04-01T04:08:41.481Z,80.80
2024-04-01T04:09:41.435Z,80.80
2024-04-01T04:10:41.441Z,81.10
2024-04-01T04:11:41.406Z,81.21
2024-04-01T04:12:41.410Z,81.51
2024-04-01T04:13:41.417Z,81.01
2024-04-01T04:14:41.384Z,81.21
2024-04-01T04:15:41.358Z,81.62
2024-04-01T04:16:41.379Z,81.41
2024-04-01T04:17:41.342Z,81.51
2024-04-01T04:18:41.337Z,81.93
2024-04-01T04:19:41.304Z,82.23
2024-04-01T04:20:41.296Z,82.34
2024-04-01T04:21:41.322Z,81.82
2024-04-01T04:22:41.293Z,82.23
2024-04-01T04:23:41.288Z,82.13
2024-04-01T04:24:41.231Z,82.34
2024-04-01T04:25:41.235Z,82.34
2024-04-01T04:26:41.233Z,81.62
2024-04-01T04:27:43.556Z,82.13
2024-04-01T04:28:41.238Z,82.75
2024-04-01T04:29:41.199Z,83.05
2024-04-01T04:30:41.156Z,82.54
2024-04-01T04:31:41.161Z,81.72
2024-04-01T04:32:41.224Z,82.43
2024-04-01T04:33:41.150Z,83.25
2024-04-01T04:34:41.096Z,82.34
2024-04-01T04:35:41.091Z,82.43
2024-04-01T04:36:41.108Z,82.64
2024-04-01T04:37:41.069Z,82.95
2024-04-01T04:38:41.058Z,82.95
2024-04-01T04:39:41.127Z,82.75
2024-04-01T04:40:41.038Z,82.75
2024-04-01T04:41:41.012Z,83.05
2024-04-01T04:42:41.174Z,83.05
2024-04-01T04:43:40.970Z,83.05
2024-04-01T04:44:40.980Z,83.56
2024-04-01T04:45:40.966Z,82.23
2024-04-01T04:46:40.961Z,82.43
2024-04-01T04:47:40.974Z,82.54
2024-04-01T04:48:40.914Z,82.43
2024-04-01T04:49:40.891Z,83.25
2024-04-01T04:50:40.903Z,83.36
2024-04-01T04:51:40.880Z,82.54
2024-04-01T04:52:40.903Z,83.05
2024-04-01T04:53:40.842Z,83.76
2024-04-01T04:54:40.829Z,84.79
2024-04-01T04:55:40.836Z,85.40
2024-04-01T04:56:40.831Z,85.91
2024-04-01T04:57:40.780Z,85.30
2024-04-01T04:58:40.815Z,85.40
2024-04-01T04:59:40.753Z,84.79
2024-04-01T05:00:40.764Z,85.50
2024-04-01T05:01:40.737Z,86.73
2024-04-01T05:02:42.658Z,86.22
2024-04-01T05:03:40.699Z,86.53
2024-04-01T05:04:40.695Z,86.43
2024-04-01T05:05:40.690Z,85.50
2024-04-01T05:06:40.692Z,86.94
2024-04-01T05:07:40.692Z,86.53
2024-04-01T05:08:40.644Z,86.22
2024-04-01T05:09:40.625Z,86.63
2024-04-01T05:10:40.622Z,87.35
2024-04-01T05:11:40.608Z,86.43
2024-04-01T05:12:40.601Z,86.12
2024-04-01T05:13:40.597Z,86.32
2024-04-01T05:14:40.582Z,88.06
2024-04-01T05:15:40.555Z,88.57
2024-04-01T05:16:40.540Z,88.17
2024-04-01T05:17:40.535Z,88.17
2024-04-01T05:18:40.506Z,88.62
2024-04-01T05:19:40.497Z,89.23
2024-04-01T05:20:40.525Z,89.12
2024-04-01T05:21:40.494Z,89.33
2024-04-01T05:22:40.653Z,90.25
2024-04-01T05:23:40.462Z,90.45
2024-04-01T05:24:40.442Z,90.56
2024-04-01T05:25:40.419Z,90.66
2024-04-01T05:26:40.419Z,90.36
2024-04-01T05:27:40.395Z,90.56
2024-04-01T05:28:40.401Z,90.66
2024-04-01T05:29:40.368Z,90.66
2024-04-01T05:30:40.363Z,89.74
2024-04-01T05:31:40.338Z,90.45
2024-04-01T05:32:40.322Z,90.86
2024-04-01T05:33:40.316Z,91.73
2024-04-01T05:34:40.316Z,91.78
2024-04-01T05:35:40.271Z,91.52
2024-04-01T05:36:40.287Z,91.01
2024-04-01T05:37:40.271Z,90.60
2024-04-01T05:38:40.265Z,90.39
2024-04-01T05:39:40.215Z,91.01
2024-04-01T05:40:40.229Z,91.63
2024-04-01T05:41:40.207Z,91.01
2024-04-01T05:42:40.255Z,90.39
2024-04-01T05:43:40.196Z,90.09
2024-04-01T05:44:40.168Z,89.98
2024-04-01T05:45:40.146Z,90.19
2024-04-01T05:46:40.138Z,90.81
2024-04-01T05:47:40.139Z,90.70
2024-04-01T05:48:40.109Z,90.50
2024-04-01T05:49:40.097Z,90.50
2024-04-01T05:50:40.084Z,90.81
2024-04-01T05:51:40.081Z,90.50
2024-04-01T05:52:40.051Z,91.22
2024-04-01T05:53:40.056Z,91.52
2024-04-01T05:54:40.040Z,92.34
2024-04-01T05:55:40.016Z,92.96
2024-04-01T05:56:40.018Z,92.03
2024-04-01T05:57:40.032Z,91.93
2024-04-01T05:58:39.990Z,92.55
2024-04-01T05:59:39.992Z,92.65
2024-04-01T06:00:39.941Z,93.06
2024-04-01T06:01:40.819Z,92.65
2024-04-01T06:02:39.920Z,92.55
2024-04-01T06:03:39.896Z,92.14
2024-04-01T06:04:39.921Z,91.42
2024-04-01T06:05:39.868Z,91.42
2024-04-01T06:06:39.872Z,91.93
2024-04-01T06:07:39.896Z,92.65
2024-04-01T06:08:39.844Z,91.83
2024-04-01T06:09:39.835Z,91.63
2024-04-01T06:10:39.823Z,91.73
2024-04-01T06:11:39.815Z,92.50
2024-04-01T06:12:39.773Z,92.24
2024-04-01T06:13:39.762Z,92.34
2024-04-01T06:14:39.786Z,92.24
2024-04-01T06:15:39.753Z,92.14
2024-04-01T06:16:39.754Z,92.85
2024-04-01T06:17:39.741Z,92.91
2024-04-01T06:18:39.693Z,93.12
2024-04-01T06:19:39.685Z,93.32
2024-04-01T06:20:39.683Z,92.55
2024-04-01T06:21:39.658Z,92.65
2024-04-01T06:22:39.655Z,92.85
2024-04-01T06:23:39.641Z,92.44
2024-04-01T06:24:39.622Z,92.14
2024-04-01T06:25:39.615Z,91.83
2024-04-01T06:26:39.610Z,91.83
2024-04-01T06:27:39.583Z,92.55
2024-04-01T06:28:39.579Z,92.96
2024-04-01T06:29:39.565Z,92.44
2024-04-01T06:30:39.550Z,92.65
2024-04-01T06:31:39.559Z,92.75
2024-04-01T06:32:39.518Z,92.55
2024-04-01T06:33:39.496Z,93.06
2024-04-01T06:34:39.516Z,93.37
2024-04-01T06:35:39.456Z,93.26
2024-04-01T06:36:39.460Z,93.77
2024-04-01T06:37:39.451Z,93.47
2024-04-01T06:38:39.444Z,93.16
2024-04-01T06:39:39.426Z,93.06
2024-04-01T06:40:39.499Z,92.96
2024-04-01T06:41:39.384Z,92.85
2024-04-01T06:42:39.386Z,92.55
2024-04-01T06:43:39.374Z,92.34
2024-04-01T06:44:39.354Z,92.96
2024-04-01T06:45:39.360Z,93.26
2024-04-01T06:46:39.364Z,92.96
2024-04-01T06:47:39.315Z,93.77
2024-04-01T06:48:39.305Z,93.98
2024-04-01T06:49:39.289Z,93.88
2024-04-01T06:50:39.360Z,93.57
2024-04-01T06:51:39.256Z,93.88
2024-04-01T06:52:39.241Z,93.57
2024-04-01T06:53:39.355Z,93.67
2024-04-01T06:54:39.250Z,93.47
2024-04-01T06:55:39.219Z,93.47
2024-04-01T06:56:39.199Z,93.47
2024-04-01T06:57:39.185Z,93.77
2024-04-01T06:58:39.337Z,93.88
2024-04-01T06:59:39.171Z,93.67
2024-04-01T07:00:39.136Z,93.37
2024-04-01T07:01:39.125Z,93.77
2024-04-01T07:02:39.160Z,93.88
2024-04-01T07:03:39.179Z,93.77
2024-04-01T07:04:39.098Z,93.88
2024-04-01T07:05:39.068Z,93.98
2024-04-01T07:06:39.062Z,93.37
2024-04-01T07:07:39.050Z,93.26
2024-04-01T07:08:39.039Z,93.88
2024-04-01T07:09:39.015Z,93.98
2024-04-01T07:10:39.031Z,93.67
2024-04-01T07:11:39.010Z,93.37
2024-04-01T07:12:38.976Z,93.16
2024-04-01T07:13:38.967Z,93.37
2024-04-01T07:14:38.948Z,94.18
2024-04-01T07:15:38.957Z,93.98
2024-04-01T07:16:38.967Z,93.37
2024-04-01T07:17:38.909Z,93.32
2024-04-01T07:18:38.903Z,93.52
2024-04-01T07:19:38.887Z,92.60
2024-04-01T07:20:38.896Z,92.19
2024-04-01T07:21:38.890Z,91.99
2024-04-01T07:22:38.856Z,92.05
2024-04-01T07:23:38.870Z,92.25
2024-04-01T07:24:38.833Z,91.95
2024-04-01T07:25:38.813Z,92.05
2024-04-01T07:26:38.779Z,91.95
2024-04-01T07:27:38.768Z,91.95
2024-04-01T07:28:38.781Z,92.05
2024-04-01T07:29:38.745Z,91.95
2024-04-01T07:30:38.763Z,92.25
2024-04-01T07:31:38.777Z,91.03
2024-04-01T07:32:38.715Z,90.78
2024-04-01T07:33:38.706Z,91.09
2024-04-01T07:34:38.814Z,90.92
2024-04-01T07:35:38.725Z,91.64
2024-04-01T07:36:38.650Z,91.64
2024-04-01T07:37:38.688Z,91.33
2024-04-01T07:38:38.796Z,90.92
2024-04-01T07:39:38.610Z,91.03
2024-04-01T07:40:40.908Z,91.44
2024-04-01T07:41:38.584Z,91.03
2024-04-01T07:42:38.578Z,91.74
2024-04-01T07:43:38.656Z,91.85
2024-04-01T07:44:38.539Z,92.15
2024-04-01T07:45:38.518Z,92.36
2024-04-01T07:46:38.553Z,92.52
2024-04-01T07:47:38.520Z,92.21
2024-04-01T07:48:38.501Z,91.80
2024-04-01T07:49:38.516Z,91.91
2024-04-01T07:50:38.464Z,92.21
2024-04-01T07:51:38.461Z,92.72
2024-04-01T07:52:38.444Z,92.62
2024-04-01T07:53:38.414Z,92.72
2024-04-01T07:54:38.456Z,92.21
2024-04-01T07:55:38.446Z,91.76
2024-04-01T07:56:38.380Z,92.27
2024-04-01T07:57:38.356Z,91.96
2024-04-01T07:58:38.607Z,91.86
2024-04-01T07:59:38.337Z,91.31
2024-04-01T08:00:38.346Z,91.11
2024-04-01T08:01:38.346Z,90.90
2024-04-01T08:02:38.301Z,90.70
2024-04-01T08:03:38.293Z,90.49
2024-04-01T08:04:38.301Z,89.88
2024-04-01T08:05:38.266Z,89.47
2024-04-01T08:06:38.241Z,90.29
2024-04-01T08:07:38.309Z,90.90
2024-04-01T08:08:38.329Z,90.59
2024-04-01T08:09:38.309Z,89.98
2024-04-01T08:10:38.309Z,90.19
2024-04-01T08:11:38.186Z,90.80
2024-04-01T08:12:38.162Z,90.08
2024-04-01T08:13:38.158Z,89.78
2024-04-01T08:14:38.135Z,90.19
2024-04-01T08:15:38.150Z,90.64
2024-04-01T08:16:38.170Z,90.23
2024-04-01T08:17:38.154Z,90.33
2024-04-01T08:18:38.094Z,90.12
2024-04-01T08:19:38.181Z,89.82
2024-04-01T08:20:38.059Z,89.72
2024-04-01T08:21:38.078Z,89.00
2024-04-01T08:22:38.055Z,89.20
2024-04-01T08:23:38.177Z,89.72
2024-04-01T08:24:38.158Z,89.72
2024-04-01T08:25:38.052Z,89.72
2024-04-01T08:26:37.989Z,90.12
2024-04-01T08:27:40.829Z,90.99
2024-04-01T08:28:38.002Z,90.78
2024-04-01T08:29:37.947Z,90.47
2024-04-01T08:30:38.012Z,90.99
2024-04-01T08:31:37.945Z,90.47
2024-04-01T08:32:37.908Z,90.78
2024-04-01T08:33:37.876Z,90.58
2024-04-01T08:34:37.960Z,90.68
2024-04-01T08:35:37.875Z,90.58
2024-04-01T08:36:37.833Z,90.17
2024-04-01T08:37:37.899Z,90.68
2024-04-01T08:38:38.281Z,90.37
2024-04-01T08:39:37.798Z,90.99
2024-04-01T08:40:37.784Z,91.19
2024-04-01T08:41:37.811Z,91.39
2024-04-01T08:42:37.796Z,91.91
2024-04-01T08:43:37.800Z,91.39
2024-04-01T08:44:37.733Z,90.99
2024-04-01T08:45:37.755Z,91.09
2024-04-01T08:46:37.795Z,91.19
2024-04-01T08:47:37.817Z,90.68
2024-04-01T08:48:37.700Z,91.19
2024-04-01T08:49:37.686Z,91.09
2024-04-01T08:50:37.654Z,91.80
2024-04-01T08:51:37.644Z,91.80
2024-04-01T08:52:37.671Z,91.05
2024-04-01T08:53:37.676Z,91.25
2024-04-01T08:54:37.595Z,90.74
2024-04-01T08:55:37.612Z,90.74
2024-04-01T08:56:38.007Z,90.58
2024-04-01T08:57:37.588Z,91.19
2024-04-01T08:58:37.580Z,91.15
2024-04-01T08:59:37.537Z,90.64
2024-04-01T09:00:38.061Z,90.53
2024-04-01T09:01:37.530Z,90.94
2024-04-01T09:02:37.556Z,90.84
2024-04-01T09:03:37.520Z,90.64
2024-04-01T09:04:37.529Z,91.35
2024-04-01T09:05:37.449Z,91.56
2024-04-01T09:06:37.424Z,91.56
2024-04-01T09:07:37.474Z,90.43
2024-04-01T09:08:37.404Z,90.64
2024-04-01T09:09:37.395Z,91.05
2024-04-01T09:10:38.234Z,90.74
2024-04-01T09:11:37.368Z,90.64
2024-04-01T09:12:37.373Z,91.05
2024-04-01T09:13:37.506Z,91.35
2024-04-01T09:14:37.320Z,91.46
2024-04-01T09:15:37.407Z,91.56
2024-04-01T09:16:37.330Z,92.07
2024-04-01T09:17:37.303Z,91.25
2024-04-01T09:18:37.295Z,91.46
2024-04-01T09:19:37.282Z,91.25
2024-04-01T09:20:37.261Z,91.66
2024-04-01T09:21:37.226Z,91.86
2024-04-01T09:22:37.239Z,91.66
2024-04-01T09:23:37.227Z,90.74
2024-04-01T09:24:37.197Z,90.23
2024-04-01T09:25:37.243Z,90.47
2024-04-01T09:26:37.164Z,90.88
2024-04-01T09:27:37.167Z,90.47
2024-04-01T09:28:37.133Z,90.78
2024-04-01T09:29:37.268Z,91.19
2024-04-01T09:30:37.121Z,91.19
2024-04-01T09:31:37.122Z,91.33
2024-04-01T09:32:37.096Z,91.33
2024-04-01T09:33:37.101Z,91.33
2024-04-01T09:34:37.140Z,91.23
2024-04-01T09:35:37.073Z,91.64
2024-04-01T09:36:37.036Z,91.85
2024-04-01T09:37:37.071Z,91.95
2024-04-01T09:38:36.998Z,91.85
2024-04-01T09:39:36.992Z,91.33
2024-04-01T09:40:37.029Z,91.85
2024-04-01T09:41:36.951Z,92.40
2024-04-01T09:42:36.961Z,92.81
2024-04-01T09:43:45.948Z,93.01
2024-04-01T09:44:36.960Z,93.84
2024-04-01T09:45:36.917Z,93.32
2024-04-01T09:46:36.918Z,92.81
2024-04-01T09:47:36.910Z,92.91
2024-04-01T09:48:37.002Z,93.01
2024-04-01T09:49:36.932Z,93.01
2024-04-01T09:50:36.836Z,93.01
2024-04-01T09:51:36.829Z,93.63
2024-04-01T09:52:36.850Z,93.73
2024-04-01T09:53:36.839Z,93.32
2024-04-01T09:54:36.938Z,93.32
2024-04-01T09:55:36.781Z,93.63
2024-04-01T09:56:36.760Z,93.52
2024-04-01T09:57:37.105Z,93.84
2024-04-01T09:58:36.745Z,93.84
2024-04-01T09:59:36.734Z,93.22
2024-04-01T10:00:36.715Z,93.22
2024-04-01T10:01:37.438Z,93.12
2024-04-01T10:02:36.747Z,93.07
2024-04-01T10:03:39.107Z,93.38
2024-04-01T10:04:36.642Z,92.87
2024-04-01T10:05:36.638Z,92.81
2024-04-01T10:06:36.916Z,92.91
2024-04-01T10:07:36.633Z,92.81
2024-04-01T10:08:36.593Z,92.81
2024-04-01T10:09:36.599Z,92.97
2024-04-01T10:10:36.582Z,92.91
2024-04-01T10:11:36.562Z,93.12
2024-04-01T10:12:36.584Z,93.52
2024-04-01T10:13:36.555Z,93.43
2024-04-01T10:14:36.578Z,93.22
2024-04-01T10:15:36.508Z,93.01
2024-04-01T10:16:36.490Z,93.43
2024-04-01T10:17:36.473Z,93.12
2024-04-01T10:18:36.482Z,93.01
2024-04-01T10:19:36.587Z,93.01
2024-04-01T10:20:36.441Z,93.01
2024-04-01T10:21:36.446Z,93.12
2024-04-01T10:22:36.469Z,93.32
2024-04-01T10:23:36.417Z,93.73
2024-04-01T10:24:36.430Z,93.63
2024-04-01T10:25:36.454Z,93.73
2024-04-01T10:26:36.342Z,92.71
2024-04-01T10:27:36.743Z,93.12
2024-04-01T10:28:36.345Z,93.32
2024-04-01T10:29:36.433Z,93.01
2024-04-01T10:30:36.369Z,93.43
2024-04-01T10:31:36.329Z,93.52
2024-04-01T10:32:36.266Z,93.73
2024-04-01T10:33:36.307Z,93.73
2024-04-01T10:34:36.742Z,94.18
2024-04-01T10:35:36.282Z,94.18
2024-04-01T10:36:36.213Z,94.49
2024-04-01T10:37:36.220Z,94.39
2024-04-01T10:38:36.442Z,94.39
2024-04-01T10:39:36.183Z,94.70
2024-04-01T10:40:36.204Z,93.88
2024-04-01T10:41:36.150Z,93.47
2024-04-01T10:42:36.133Z,93.67
2024-04-01T10:43:36.145Z,94.08
2024-04-01T10:44:36.152Z,93.37
2024-04-01T10:45:36.110Z,94.18
2024-04-01T10:46:36.105Z,94.49
2024-04-01T10:47:36.141Z,94.29
2024-04-01T10:48:36.058Z,94.90
2024-04-01T10:49:36.039Z,94.80
2024-04-01T10:50:36.030Z,94.45
2024-04-01T10:51:36.022Z,94.24
2024-04-01T10:52:36.015Z,94.14
2024-04-01T10:53:35.996Z,94.14
2024-04-01T10:54:36.038Z,93.73
2024-04-01T10:55:36.200Z,93.43
2024-04-01T10:56:35.946Z,93.48
2024-04-01T10:57:35.998Z,92.56
2024-04-01T10:58:35.974Z,92.56
2024-04-01T10:59:35.944Z,92.66
2024-04-01T11:00:35.911Z,92.56
2024-04-01T11:01:35.868Z,92.66
2024-04-01T11:02:35.897Z,91.33
2024-04-01T11:03:35.892Z,91.50
2024-04-01T11:04:35.879Z,91.60
2024-04-01T11:05:35.880Z,91.50
2024-04-01T11:06:35.811Z,91.25
2024-04-01T11:07:35.807Z,91.15
2024-04-01T11:08:35.795Z,89.72
2024-04-01T11:09:35.796Z,90.08
2024-04-01T11:10:35.781Z,89.88
2024-04-01T11:11:37.895Z,89.78
2024-04-01T11:12:35.743Z,89.37
2024-04-01T11:13:35.720Z,89.47
2024-04-01T11:14:35.722Z,90.29
2024-04-01T11:15:35.697Z,89.78
2024-04-01T11:16:35.689Z,89.98
2024-04-01T11:17:35.687Z,89.98
2024-04-01T11:18:35.652Z,91.20
2024-04-01T11:19:35.665Z,89.67
2024-04-01T11:20:35.778Z,89.78
2024-04-01T11:21:35.618Z,88.65
2024-04-01T11:22:35.596Z,88.55
2024-04-01T11:23:35.581Z,88.35
2024-04-01T11:24:35.865Z,88.85
2024-04-01T11:25:35.561Z,89.26
2024-04-01T11:26:35.541Z,90.39
2024-04-01T11:27:35.538Z,89.17
2024-04-01T11:28:36.542Z,89.98
2024-04-01T11:29:36.646Z,89.92
2024-04-01T11:30:35.523Z,89.92
2024-04-01T11:31:35.488Z,88.18
2024-04-01T11:32:35.534Z,88.39
2024-04-01T11:33:35.519Z,89.41
2024-04-01T11:34:35.484Z,89.92
2024-04-01T11:35:35.435Z,89.25
2024-04-01T11:36:35.872Z,89.65
2024-04-01T11:37:35.397Z,89.56
2024-04-01T11:38:35.410Z,89.00
2024-04-01T11:39:35.418Z,89.61
2024-04-01T11:40:35.355Z,89.20
2024-04-01T11:41:35.365Z,89.82
2024-04-01T11:42:36.549Z,89.00
2024-04-01T11:43:35.547Z,89.00
2024-04-01T11:44:43.329Z,88.90
2024-04-01T11:45:35.321Z,88.70
2024-04-01T11:46:35.294Z,89.35
2024-04-01T11:47:35.262Z,89.35
2024-04-01T11:48:35.256Z,89.41
2024-04-01T11:49:35.739Z,89.41
2024-04-01T11:50:35.250Z,89.72
2024-04-01T11:51:35.232Z,89.41
2024-04-01T11:52:35.229Z,89.61
2024-04-01T11:53:35.174Z,90.12
2024-04-01T11:54:35.160Z,89.92
2024-04-01T11:55:35.151Z,89.72
2024-04-01T11:56:35.154Z,88.59
2024-04-01T11:57:35.128Z,88.90
2024-04-01T11:58:35.113Z,88.79
2024-04-01T11:59:35.125Z,89.31
2024-04-01T12:00:35.120Z,89.26
2024-04-01T12:01:35.091Z,87.47
2024-04-01T12:02:35.120Z,87.98
2024-04-01T12:03:35.048Z,88.18
2024-04-01T12:04:35.035Z,88.08
2024-04-01T12:05:35.018Z,87.88
2024-04-01T12:06:35.010Z,87.37
2024-04-01T12:07:34.983Z,87.67
2024-04-01T12:08:36.154Z,87.47
2024-04-01T12:09:34.974Z,87.67
2024-04-01T12:10:34.955Z,88.64
2024-04-01T12:11:34.962Z,88.23
2024-04-01T12:12:35.650Z,87.71
2024-04-01T12:13:34.911Z,87.61
2024-04-01T12:14:35.030Z,88.02
2024-04-01T12:15:34.926Z,88.53
2024-04-01T12:16:34.872Z,88.33
2024-04-01T12:17:35.348Z,87.61
2024-04-01T12:18:34.866Z,88.23
2024-04-01T12:19:34.827Z,88.33
2024-04-01T12:20:36.488Z,87.92
2024-04-01T12:21:34.824Z,87.88
2024-04-01T12:22:34.873Z,87.57
2024-04-01T12:23:34.785Z,87.16
2024-04-01T12:24:34.767Z,87.26
2024-04-01T12:25:34.762Z,87.47
2024-04-01T12:26:34.743Z,86.55
2024-04-01T12:27:34.761Z,87.16
2024-04-01T12:28:34.719Z,86.76
2024-04-01T12:29:34.710Z,86.44
2024-04-01T12:30:36.216Z,86.04
2024-04-01T12:31:34.671Z,86.35
2024-04-01T12:32:34.683Z,86.65
2024-04-01T12:33:34.666Z,86.96
2024-04-01T12:34:34.630Z,86.24
2024-04-01T12:35:34.629Z,85.73
2024-04-01T12:36:36.584Z,85.49
2024-04-01T12:37:34.585Z,85.69
2024-04-01T12:38:34.576Z,85.28
2024-04-01T12:39:34.549Z,85.08
2024-04-01T12:40:34.546Z,84.53
2024-04-01T12:41:34.536Z,84.22
2024-04-01T12:42:34.508Z,84.42
2024-04-01T12:43:34.579Z,84.74
2024-04-01T12:44:34.491Z,84.39
2024-04-01T12:45:34.475Z,84.28
2024-04-01T12:46:34.455Z,83.98
2024-04-01T12:47:34.453Z,84.28
2024-04-01T12:48:35.885Z,83.67
2024-04-01T12:49:34.410Z,83.33
2024-04-01T12:50:34.436Z,82.75
2024-04-01T12:51:34.393Z,83.37
2024-04-01T12:52:34.393Z,83.67